Wetterdaten Winter 2018/2019

Datum T max T min Regen
01.12.2018 10.2 °C 4.6 °C 0 mm
02.12.2018 12.5 °C 7.3 °C 4.6 mm
03.12.2018 13 °C 9.8 °C 10.8 mm
04.12.2018 10 °C 2.7 °C 2.4 mm
05.12.2018 8.7 °C 2.3 °C 0 mm
06.12.2018 11.2 °C 5.7 °C 1.8 mm
07.12.2018 12.4 °C 6.8 °C 1.4 mm
08.12.2018 8.3 °C 4.7 °C 0.6 mm
09.12.2018 10.4 °C 6 °C 3 mm
10.12.2018 6.2 °C 1.8 °C 1 mm
11.12.2018 3.7 °C 0 °C 0 mm
12.12.2018 3 °C 0 °C 0 mm
13.12.2018 0.6 °C -2.3 °C 0 mm
14.12.2018 0.2 °C -0.7 °C 0 mm
15.12.2018 -0 °C -2.8 °C 0 mm
16.12.2018 1.7 °C -2.7 °C 1.4 mm
17.12.2018 4.3 °C -0.8 °C 0.4 mm
18.12.2018 6.2 °C -0.5 °C 0.2 mm
19.12.2018 5.6 °C 0.6 °C 1.2 mm
20.12.2018 8.2 °C 4.1 °C 0.2 mm
21.12.2018 11.4 °C 5.9 °C 0.6 mm
22.12.2018 11.4 °C 7.6 °C 7.2 mm
23.12.2018 12.6 °C 7 °C 5.4 mm
24.12.2018 12.6 °C 1.1 °C 8.2 mm
25.12.2018 1.1 °C -1.9 °C 0 mm
26.12.2018 -0.2 °C -2 °C 0 mm
27.12.2018 1 °C -2.8 °C 0 mm
28.12.2018 0.4 °C -3.3 °C 0 mm
29.12.2018 3.7 °C -0.3 °C 0.2 mm
30.12.2018 5.6 °C 3.7 °C 1 mm
31.12.2018 6.3 °C 4.2 °C 1.8 mm
01.01.2019 5.8 °C 4.3 °C 1 mm
02.01.2019 4.3 °C -0.9 °C 0 mm
03.01.2019 0.7 °C -3.3 °C 4 mm
04.01.2019 1.3 °C -0.9 °C 0 mm
05.01.2019 3.7 °C 0.3 °C 8 mm
06.01.2019 3.7 °C 2.8 °C 4.6 mm
07.01.2019 4 °C 2.5 °C 0 mm
08.01.2019 6.3 °C 2.5 °C 2.2 mm
09.01.2019 3.7 °C -0.5 °C 1.8 mm
10.01.2019 0.8 °C -1.5 °C 0 mm
11.01.2019 -0.1 °C -2.4 °C 5 mm
12.01.2019 3.8 °C -0.1 °C 14.4 mm
13.01.2019 8.7 °C 2.8 °C 21.6 mm
14.01.2019 6.9 °C 1.4 °C 2.4 mm
15.01.2019 5.6 °C 1.2 °C 0 mm
16.01.2019 5.7 °C 1.9 °C 0 mm
17.01.2019 7.6 °C 0.6 °C 1.4 mm
18.01.2019 1.7 °C -3.2 °C 0.2 mm
19.01.2019 -1.4 °C -5.6 °C 0 mm
20.01.2019 -0.9 °C -6.2 °C 0 mm
21.01.2019 -1.4 °C -7.1 °C 0 mm
22.01.2019 0.2 °C -7.4 °C 0 mm
23.01.2019 -0.5 °C -4.8 °C 0.4 mm
24.01.2019 -2.6 °C -5.1 °C 0.8 mm
25.01.2019 0 °C -5.5 °C 0 mm
26.01.2019 4.9 °C -0.7 °C 1.2 mm
27.01.2019 8.7 °C 1.3 °C 1 mm
28.01.2019 2.2 °C 0.6 °C 1.8 mm
29.01.2019 3.6 °C -1.1 °C 0 mm
30.01.2019 4.8 °C -1.3 °C 0 mm
31.01.2019 3.5 °C -3.4 °C 0.4 mm
01.02.2019 4.2 °C 1.4 °C 3.2 mm
02.02.2019 5.8 °C 1.3 °C 0 mm
03.02.2019 3.2 °C 0.8 °C 0.6 mm
04.02.2019 4.3 °C -2.6 °C 0 mm
05.02.2019 5.4 °C -3.2 °C 0 mm
06.02.2019 6.3 °C -3.3 °C 0 mm
07.02.2019 4.5 °C -2.4 °C 1.8 mm
08.02.2019 9.8 °C 0.8 °C 0 mm
09.02.2019 10.9 °C 3.6 °C 0.2 mm
10.02.2019 14.4 °C 4.2 °C 1.4 mm
11.02.2019 6.1 °C 1.9 °C 1.6 mm
12.02.2019 5.2 °C 1.4 °C 0 mm
13.02.2019 8.9 °C -2 °C 0.2 mm
14.02.2019 11.7 °C -1.7 °C 0 mm
15.02.2019 15.8 °C -2.2 °C 0 mm
16.02.2019 15 °C -1.5 °C 0 mm
17.02.2019 15.7 °C -0.8 °C 0 mm
 Hinweis zur Datenqualität
∅ Temperatur

3.1 °C

Abweichung vom Mittel

+1.1 °C

Niederschlag

134.6 mm

Abweichung vom Mittel

109 %

°C

Lufttemperatur
01.01.1970

0 hPa

Luftdruck
01.01.1970

km/h

Windböen
01.01.1970

mm

Niederschlag
 

°C

Lufttemperatur
01.01.1970

*) °C

Bodentemperatur 5cm
01.01.1970

0 hPa

Luftdruck
01.01.1970
*) Messwert für diesen Zeitpunkt noch nicht verfügbar
 Hinweis zur Datenqualität